createdAt,value
2023-01-17T00:01:08.581Z,78.89
2023-01-17T00:04:03.061Z,78.70
2023-01-17T00:06:51.504Z,79.46
2023-01-17T00:09:38.078Z,80.70
2023-01-17T00:12:09.165Z,80.25
2023-01-17T00:14:35.993Z,79.42
2023-01-17T00:17:08.417Z,79.32
2023-01-17T00:19:56.230Z,78.49
2023-01-17T00:22:48.387Z,78.49
2023-01-17T00:25:43.910Z,78.83
2023-01-17T00:28:10.638Z,78.84
2023-01-17T00:30:43.434Z,77.77
2023-01-17T00:33:11.485Z,76.65
2023-01-17T00:35:42.401Z,77.12
2023-01-17T00:38:15.116Z,78.03
2023-01-17T00:40:58.690Z,78.06
2023-01-17T00:43:43.986Z,77.55
2023-01-17T00:49:34.923Z,76.93
2023-01-17T00:52:39.741Z,77.14
2023-01-17T00:55:30.228Z,77.92
2023-01-17T00:58:21.353Z,78.12
2023-01-17T01:01:29.430Z,78.59
2023-01-17T01:04:16.196Z,79.45
2023-01-17T01:07:07.469Z,76.37
2023-01-17T01:10:01.421Z,76.79
2023-01-17T01:12:49.597Z,77.28
2023-01-17T01:15:41.430Z,77.02
2023-01-17T01:18:37.514Z,77.05
2023-01-17T01:21:29.845Z,75.93
2023-01-17T01:24:15.268Z,76.80
2023-01-17T01:27:03.402Z,76.95
2023-01-17T01:30:03.833Z,75.50
2023-01-17T01:33:01.810Z,74.15
2023-01-17T01:35:33.756Z,74.92
2023-01-17T01:38:07.825Z,76.01
2023-01-17T01:40:51.327Z,76.83
2023-01-17T01:44:00.211Z,75.85
2023-01-17T01:46:57.806Z,76.70
2023-01-17T01:49:40.440Z,76.87
2023-01-17T01:52:14.535Z,75.93
2023-01-17T01:54:47.360Z,76.03
2023-01-17T01:57:23.399Z,75.98
2023-01-17T01:59:57.945Z,76.58
2023-01-17T02:02:25.059Z,75.94
2023-01-17T02:05:09.156Z,76.66
2023-01-17T02:07:48.670Z,77.22
2023-01-17T02:10:23.709Z,76.28
2023-01-17T02:12:53.057Z,74.50
2023-01-17T02:15:34.274Z,75.59
2023-01-17T02:18:26.073Z,74.54
2023-01-17T02:21:19.146Z,76.16
2023-01-17T02:24:04.723Z,76.31
2023-01-17T02:26:57.440Z,75.49
2023-01-17T02:29:43.342Z,74.80
2023-01-17T02:32:35.473Z,76.04
2023-01-17T02:35:37.087Z,76.53
2023-01-17T02:38:54.924Z,75.72
2023-01-17T02:41:36.528Z,77.15
2023-01-17T02:44:09.932Z,75.69
2023-01-17T02:46:48.270Z,75.37
2023-01-17T02:49:23.158Z,76.00
2023-01-17T02:52:25.872Z,76.78
2023-01-17T02:55:08.017Z,77.50
2023-01-17T02:58:17.118Z,79.13
2023-01-17T03:01:09.639Z,75.87
2023-01-17T03:03:56.616Z,76.31
2023-01-17T03:06:40.294Z,76.48
2023-01-17T03:09:18.897Z,77.26
2023-01-17T03:11:53.121Z,74.85
2023-01-17T03:14:23.087Z,74.70
2023-01-17T03:16:53.554Z,76.34
2023-01-17T03:19:23.645Z,75.09
2023-01-17T03:22:14.683Z,76.17
2023-01-17T03:24:41.399Z,77.72
2023-01-17T03:27:26.361Z,76.29
2023-01-17T03:30:02.794Z,76.62
2023-01-17T03:32:35.543Z,75.91
2023-01-17T03:35:06.790Z,76.42
2023-01-17T03:37:40.428Z,77.83
2023-01-17T03:40:08.607Z,78.05
2023-01-17T03:42:35.750Z,77.88
2023-01-17T03:45:05.950Z,78.21
2023-01-17T03:47:36.500Z,78.24
2023-01-17T03:50:10.996Z,76.88
2023-01-17T03:52:38.549Z,78.34
2023-01-17T03:55:14.628Z,79.04
2023-01-17T03:57:44.437Z,79.69
2023-01-17T04:00:21.966Z,78.43
2023-01-17T04:02:48.880Z,80.56
2023-01-17T04:05:27.413Z,78.44
2023-01-17T04:08:00.271Z,77.96
2023-01-17T04:13:45.732Z,79.23
2023-01-17T04:16:16.620Z,81.40
2023-01-17T04:18:44.809Z,80.27
2023-01-17T04:21:12.612Z,75.01
2023-01-17T04:23:39.405Z,76.26
2023-01-17T04:26:20.489Z,74.77
2023-01-17T04:28:53.310Z,76.84
2023-01-17T04:31:23.591Z,77.47
2023-01-17T04:33:50.355Z,76.27
2023-01-17T04:36:22.683Z,73.73
2023-01-17T04:38:49.423Z,71.40
2023-01-17T04:41:49.803Z,71.11
2023-01-17T04:44:16.528Z,69.99
2023-01-17T04:46:43.304Z,69.03
2023-01-17T04:49:16.226Z,70.26
2023-01-17T04:51:49.105Z,68.39
2023-01-17T04:54:15.928Z,68.96
2023-01-17T04:56:49.314Z,71.21
2023-01-17T04:59:22.362Z,70.38
2023-01-17T05:01:49.695Z,71.44
2023-01-17T05:04:16.603Z,70.26
2023-01-17T05:06:46.595Z,68.64
2023-01-17T05:09:18.972Z,67.09
2023-01-17T05:12:07.348Z,65.99
2023-01-17T05:14:47.960Z,66.66
2023-01-17T05:17:14.681Z,63.86
2023-01-17T05:19:51.064Z,66.44
2023-01-17T05:22:35.445Z,66.90
2023-01-17T05:25:10.858Z,65.70
2023-01-17T05:27:37.692Z,66.35
2023-01-17T05:30:05.724Z,67.08
2023-01-17T05:32:42.559Z,69.34
2023-01-17T05:35:15.689Z,69.04
2023-01-17T05:37:58.717Z,67.36
2023-01-17T05:40:31.085Z,68.41
2023-01-17T05:42:59.417Z,67.69
2023-01-17T05:45:28.542Z,66.38
2023-01-17T05:47:59.908Z,64.81
2023-01-17T05:50:56.876Z,65.61
2023-01-17T05:53:41.821Z,65.17
2023-01-17T05:56:20.185Z,64.02
2023-01-17T05:58:46.882Z,64.55
2023-01-17T06:01:13.634Z,65.02
2023-01-17T06:03:43.268Z,64.50
2023-01-17T06:06:13.319Z,62.85
2023-01-17T06:08:40.087Z,63.76
2023-01-17T06:11:06.847Z,63.63
2023-01-17T06:13:33.911Z,63.68
2023-01-17T06:16:04.471Z,62.49
2023-01-17T06:18:31.867Z,62.94
2023-01-17T06:20:59.584Z,63.71
2023-01-17T06:23:44.007Z,63.28
2023-01-17T06:26:28.583Z,63.28
2023-01-17T06:28:58.361Z,62.84
2023-01-17T06:31:28.209Z,63.27
2023-01-17T06:33:55.461Z,62.54
2023-01-17T06:36:24.946Z,62.75
2023-01-17T06:39:00.436Z,62.33
2023-01-17T06:41:27.231Z,62.83
2023-01-17T06:43:54.871Z,62.16
2023-01-17T06:46:21.875Z,61.32
2023-01-17T06:49:17.066Z,62.36
2023-01-17T06:51:56.310Z,61.63
2023-01-17T06:54:23.018Z,61.74
2023-01-17T06:56:52.698Z,62.13
2023-01-17T06:59:19.323Z,62.52
2023-01-17T07:01:55.324Z,63.83
2023-01-17T07:04:23.394Z,62.96
2023-01-17T07:06:53.175Z,63.45
2023-01-17T07:09:24.491Z,63.54
2023-01-17T07:12:06.791Z,64.31
2023-01-17T07:14:42.250Z,62.37
2023-01-17T07:17:08.940Z,64.88
2023-01-17T07:19:48.875Z,65.15
2023-01-17T07:22:21.935Z,64.86
2023-01-17T07:24:48.770Z,65.19
2023-01-17T07:27:18.141Z,63.98
2023-01-17T07:29:51.153Z,62.69
2023-01-17T07:32:21.211Z,63.05
2023-01-17T07:34:51.176Z,64.05
2023-01-17T07:37:24.323Z,63.93
2023-01-17T07:39:58.957Z,63.68
2023-01-17T07:42:32.101Z,63.81
2023-01-17T07:45:03.934Z,64.05
2023-01-17T07:47:38.896Z,63.02
2023-01-17T07:50:09.432Z,63.04
2023-01-17T07:53:00.899Z,62.81
2023-01-17T07:55:48.566Z,63.50
2023-01-17T07:58:19.248Z,64.52
2023-01-17T08:03:42.216Z,62.96
2023-01-17T08:06:24.576Z,62.86
2023-01-17T08:09:07.633Z,63.59
2023-01-17T08:11:50.754Z,63.33
2023-01-17T08:14:25.534Z,62.75
2023-01-17T08:16:52.320Z,61.75
2023-01-17T08:19:19.488Z,61.90
2023-01-17T08:24:40.306Z,62.39
2023-01-17T08:27:16.103Z,62.83
2023-01-17T08:29:57.720Z,62.25
2023-01-17T08:32:31.256Z,62.17
2023-01-17T08:38:06.165Z,60.98
2023-01-17T08:40:33.082Z,62.13
2023-01-17T08:43:25.483Z,60.73
2023-01-17T08:46:00.485Z,61.08
2023-01-17T08:48:47.974Z,61.04
2023-01-17T08:51:21.670Z,61.61
2023-01-17T08:53:55.844Z,61.75
2023-01-17T08:56:38.618Z,60.99
2023-01-17T08:59:33.233Z,62.26
2023-01-17T09:02:24.444Z,62.29
2023-01-17T09:04:52.340Z,62.64
2023-01-17T09:07:35.542Z,62.46
2023-01-17T09:10:26.000Z,62.39
2023-01-17T09:13:13.689Z,62.20
2023-01-17T09:15:45.553Z,61.11
2023-01-17T09:18:18.361Z,60.78
2023-01-17T09:20:45.136Z,61.02
2023-01-17T09:23:12.276Z,62.71
2023-01-17T09:25:44.789Z,63.19
2023-01-17T09:28:11.342Z,63.54
2023-01-17T09:30:46.066Z,62.64
2023-01-17T09:33:34.124Z,61.90
2023-01-17T09:36:19.309Z,62.32
2023-01-17T09:39:00.081Z,62.84
2023-01-17T09:42:18.797Z,62.21
2023-01-17T09:45:09.327Z,62.42
2023-01-17T09:47:50.798Z,61.82
2023-01-17T09:50:29.038Z,62.18
2023-01-17T09:53:25.959Z,61.93
2023-01-17T09:56:11.690Z,65.11
2023-01-17T10:01:25.438Z,64.11
2023-01-17T10:04:16.495Z,65.13
2023-01-17T10:07:36.302Z,65.08
2023-01-17T10:10:32.465Z,66.99
2023-01-17T10:13:49.163Z,64.58
2023-01-17T10:20:14.298Z,62.90
2023-01-17T10:26:25.007Z,67.17
2023-01-17T10:29:01.207Z,68.94
2023-01-17T10:31:34.308Z,67.82
2023-01-17T10:34:15.121Z,66.15
2023-01-17T10:36:46.298Z,64.57
2023-01-17T10:39:29.091Z,64.38
2023-01-17T10:42:27.591Z,63.69
2023-01-17T10:48:43.106Z,64.47
2023-01-17T10:51:37.301Z,64.01
2023-01-17T10:54:43.472Z,67.56
2023-01-17T10:57:29.308Z,67.78
2023-01-17T11:00:01.196Z,67.50
2023-01-17T11:02:37.992Z,66.88
2023-01-17T11:05:22.015Z,67.65
2023-01-17T11:08:24.515Z,70.74
2023-01-17T11:11:04.960Z,70.28
2023-01-17T11:13:38.710Z,67.71
2023-01-17T11:16:09.252Z,69.37
2023-01-17T11:18:54.280Z,68.74
2023-01-17T11:21:23.455Z,69.47
2023-01-17T11:24:09.066Z,70.79
2023-01-17T11:26:53.966Z,70.67
2023-01-17T11:29:37.527Z,67.64
2023-01-17T11:32:39.000Z,68.67
2023-01-17T11:35:48.122Z,70.17
2023-01-17T11:38:22.916Z,73.56
2023-01-17T11:41:16.450Z,75.37
2023-01-17T11:44:14.385Z,76.80
2023-01-17T11:46:41.070Z,75.86
2023-01-17T11:49:28.550Z,75.10
2023-01-17T11:52:08.097Z,76.71
2023-01-17T11:54:42.777Z,77.26
2023-01-17T11:57:32.984Z,77.35
2023-01-17T12:00:08.889Z,78.38
2023-01-17T12:02:51.086Z,79.68
2023-01-17T12:05:38.317Z,80.60
2023-01-17T12:08:19.721Z,81.32
2023-01-17T12:10:54.997Z,82.50
2023-01-17T12:17:11.727Z,83.00
2023-01-17T12:20:05.335Z,82.69
2023-01-17T12:23:02.925Z,83.45
2023-01-17T12:25:46.747Z,83.72
2023-01-17T12:28:24.802Z,84.23
2023-01-17T12:31:08.255Z,84.33
2023-01-17T12:33:55.031Z,84.74
2023-01-17T12:36:54.699Z,85.03
2023-01-17T12:39:27.183Z,84.01
2023-01-17T12:42:30.640Z,83.98
2023-01-17T12:45:05.295Z,83.63
2023-01-17T12:47:40.082Z,83.41
2023-01-17T12:50:38.806Z,82.91
2023-01-17T12:53:24.077Z,83.31
2023-01-17T12:56:29.758Z,83.93
2023-01-17T12:59:19.712Z,84.04
2023-01-17T13:01:58.898Z,84.10
2023-01-17T13:04:59.040Z,82.94
2023-01-17T13:07:48.989Z,82.85
2023-01-17T13:10:40.588Z,83.41
2023-01-17T13:13:28.488Z,83.59
2023-01-17T13:16:27.764Z,83.71
2023-01-17T13:19:18.843Z,83.15
2023-01-17T13:21:50.485Z,83.75
2023-01-17T13:24:49.913Z,83.66
2023-01-17T13:27:43.433Z,83.41
2023-01-17T13:30:18.925Z,84.06
2023-01-17T13:33:36.637Z,83.05
2023-01-17T13:36:34.649Z,82.89
2023-01-17T13:39:33.430Z,82.63
2023-01-17T13:42:30.773Z,84.13
2023-01-17T13:45:47.369Z,84.12
2023-01-17T13:48:20.819Z,84.14
2023-01-17T13:51:15.818Z,83.51
2023-01-17T13:54:15.417Z,83.42
2023-01-17T13:56:45.216Z,82.38
2023-01-17T13:59:32.255Z,82.05
2023-01-17T14:02:33.880Z,83.49
2023-01-17T14:05:10.129Z,83.61
2023-01-17T14:08:09.006Z,83.55
2023-01-17T14:10:52.129Z,84.10
2023-01-17T14:20:18.127Z,83.05
2023-01-17T14:26:16.688Z,83.19
2023-01-17T14:28:54.040Z,83.44
2023-01-17T14:31:24.331Z,82.83
2023-01-17T14:33:51.089Z,82.43
2023-01-17T14:36:28.209Z,82.27
2023-01-17T14:38:55.249Z,82.38
2023-01-17T14:41:26.494Z,81.56
2023-01-17T14:43:59.652Z,82.62
2023-01-17T14:46:35.660Z,81.80
2023-01-17T14:49:33.902Z,82.86
2023-01-17T14:52:02.868Z,82.97
2023-01-17T14:54:36.743Z,83.79
2023-01-17T14:57:28.126Z,82.92
2023-01-17T15:00:11.524Z,82.54
2023-01-17T15:03:02.388Z,82.13
2023-01-17T15:05:30.401Z,82.41
2023-01-17T15:08:06.706Z,81.74
2023-01-17T15:10:38.643Z,80.88
2023-01-17T15:13:10.930Z,80.16
2023-01-17T15:15:40.269Z,79.90
2023-01-17T15:18:31.576Z,80.32
2023-01-17T15:21:16.516Z,80.74
2023-01-17T15:23:49.404Z,80.83
2023-01-17T15:26:18.630Z,80.85
2023-01-17T15:32:05.847Z,79.36
2023-01-17T15:34:38.732Z,78.29
2023-01-17T15:38:04.126Z,78.67
2023-01-17T15:40:50.826Z,79.03
2023-01-17T15:43:35.987Z,80.09
2023-01-17T15:46:06.016Z,80.36
2023-01-17T15:48:44.837Z,81.25
2023-01-17T15:51:17.030Z,81.06
2023-01-17T15:53:44.400Z,80.30
2023-01-17T15:56:36.353Z,81.27
2023-01-17T15:59:29.515Z,81.13
2023-01-17T16:01:59.758Z,81.75
2023-01-17T16:04:45.590Z,81.64
2023-01-17T16:07:34.197Z,82.06
2023-01-17T16:10:23.388Z,82.64
2023-01-17T16:12:53.606Z,82.42
2023-01-17T16:15:20.807Z,82.72
2023-01-17T16:17:55.080Z,83.18
2023-01-17T16:20:41.615Z,83.94
2023-01-17T16:23:17.405Z,82.83
2023-01-17T16:25:47.951Z,83.32
2023-01-17T16:28:23.711Z,82.85
2023-01-17T16:30:59.391Z,82.35
2023-01-17T16:33:26.072Z,82.41
2023-01-17T16:35:54.583Z,81.71
2023-01-17T16:38:22.925Z,81.81
2023-01-17T16:40:56.244Z,82.91
2023-01-17T16:43:54.870Z,81.95
2023-01-17T16:49:19.099Z,82.94
2023-01-17T16:51:49.983Z,82.62
2023-01-17T16:54:28.841Z,82.44
2023-01-17T16:57:04.905Z,81.22
2023-01-17T16:59:50.339Z,81.23
2023-01-17T17:02:18.779Z,81.05
2023-01-17T17:04:48.603Z,81.79
2023-01-17T17:07:23.288Z,82.82
2023-01-17T17:09:54.326Z,83.28
2023-01-17T17:12:22.954Z,82.93
2023-01-17T17:17:37.091Z,82.97
2023-01-17T17:20:07.481Z,82.51
2023-01-17T17:22:34.218Z,83.00
2023-01-17T17:25:00.974Z,83.53
2023-01-17T17:27:30.686Z,83.84
2023-01-17T17:30:02.503Z,84.30
2023-01-17T17:32:30.363Z,84.64
2023-01-17T17:35:00.044Z,84.82
2023-01-17T17:38:12.175Z,83.95
2023-01-17T17:40:37.385Z,83.77
2023-01-17T17:43:09.887Z,84.20
2023-01-17T17:45:42.790Z,82.78
2023-01-17T17:48:21.726Z,82.48
2023-01-17T17:51:12.056Z,83.22
2023-01-17T17:53:51.633Z,83.83
2023-01-17T17:56:29.338Z,82.83
2023-01-17T17:59:22.661Z,81.82
2023-01-17T18:01:52.269Z,82.87
2023-01-17T18:04:34.120Z,82.64
2023-01-17T18:07:02.478Z,83.26
2023-01-17T18:09:47.368Z,82.19
2023-01-17T18:12:20.241Z,82.88
2023-01-17T18:14:47.057Z,82.65
2023-01-17T18:17:19.090Z,82.47
2023-01-17T18:20:00.779Z,82.70
2023-01-17T18:22:29.052Z,82.60
2023-01-17T18:25:04.386Z,83.14
2023-01-17T18:27:33.331Z,83.13
2023-01-17T18:30:01.470Z,83.55
2023-01-17T18:32:47.759Z,83.80
2023-01-17T18:35:23.900Z,84.02
2023-01-17T18:38:00.160Z,83.35
2023-01-17T18:40:27.055Z,82.05
2023-01-17T18:43:00.086Z,81.92
2023-01-17T18:45:31.373Z,81.95
2023-01-17T18:48:13.516Z,81.58
2023-01-17T18:50:45.173Z,82.51
2023-01-17T18:53:22.992Z,82.88
2023-01-17T18:55:56.925Z,82.56
2023-01-17T18:58:25.312Z,83.29
2023-01-17T19:00:54.376Z,82.78
2023-01-17T19:03:31.057Z,81.32
2023-01-17T19:06:11.468Z,80.41
2023-01-17T19:08:51.955Z,80.53
2023-01-17T19:11:20.391Z,81.17
2023-01-17T19:13:50.240Z,82.17
2023-01-17T19:16:26.613Z,82.71
2023-01-17T19:19:04.023Z,82.86
2023-01-17T19:21:31.098Z,83.37
2023-01-17T19:24:04.473Z,83.38
2023-01-17T19:26:38.482Z,83.68
2023-01-17T19:29:09.364Z,83.82
2023-01-17T19:31:42.014Z,82.87
2023-01-17T19:34:18.960Z,82.57
2023-01-17T19:36:49.732Z,81.37
2023-01-17T19:39:20.667Z,82.35
2023-01-17T19:41:54.714Z,82.57
2023-01-17T19:44:21.637Z,82.67
2023-01-17T19:46:51.345Z,82.46
2023-01-17T19:49:28.909Z,82.01
2023-01-17T19:52:06.487Z,81.31
2023-01-17T19:54:40.037Z,80.81
2023-01-17T19:57:08.219Z,81.82
2023-01-17T19:59:38.264Z,82.22
2023-01-17T20:02:16.486Z,81.85
2023-01-17T20:05:13.714Z,82.14
2023-01-17T20:07:51.517Z,82.70
2023-01-17T20:10:34.227Z,83.05
2023-01-17T20:13:10.572Z,82.33
2023-01-17T20:15:53.210Z,81.15
2023-01-17T20:18:26.705Z,80.65
2023-01-17T20:20:57.405Z,80.95
2023-01-17T20:23:24.370Z,81.89
2023-01-17T20:26:03.686Z,81.04
2023-01-17T20:29:00.850Z,80.94
2023-01-17T20:31:30.344Z,80.54
2023-01-17T20:33:58.202Z,82.04
2023-01-17T20:36:40.272Z,81.25
2023-01-17T20:39:12.531Z,80.16
2023-01-17T20:41:50.380Z,79.70
2023-01-17T20:44:31.572Z,81.25
2023-01-17T20:47:37.462Z,80.12
2023-01-17T20:50:10.935Z,80.31
2023-01-17T20:52:41.182Z,81.11
2023-01-17T20:55:11.828Z,81.49
2023-01-17T20:57:39.695Z,81.24
2023-01-17T21:00:15.964Z,80.41
2023-01-17T21:02:42.801Z,81.11
2023-01-17T21:05:20.303Z,81.00
2023-01-17T21:07:53.000Z,80.64
2023-01-17T21:10:22.865Z,80.84
2023-01-17T21:12:49.703Z,79.85
2023-01-17T21:15:25.880Z,79.88
2023-01-17T21:18:00.007Z,78.06
2023-01-17T21:20:34.908Z,80.05
2023-01-17T21:23:02.985Z,79.52
2023-01-17T21:25:31.529Z,78.28
2023-01-17T21:28:01.366Z,78.94
2023-01-17T21:30:29.398Z,79.94
2023-01-17T21:32:56.164Z,79.18
2023-01-17T21:35:23.013Z,80.18
2023-01-17T21:37:50.651Z,80.36
2023-01-17T21:40:38.665Z,79.13
2023-01-17T21:43:07.554Z,79.50
2023-01-17T21:45:44.371Z,80.39
2023-01-17T21:48:22.025Z,80.38
2023-01-17T21:51:00.768Z,79.75
2023-01-17T21:53:57.463Z,79.87
2023-01-17T21:56:55.539Z,79.91
2023-01-17T21:59:22.497Z,79.51
2023-01-17T22:01:56.700Z,80.43
2023-01-17T22:04:28.467Z,80.17
2023-01-17T22:06:55.361Z,81.14
2023-01-17T22:09:26.675Z,82.89
2023-01-17T22:11:58.334Z,81.36
2023-01-17T22:14:25.070Z,79.79
2023-01-17T22:16:53.384Z,79.60
2023-01-17T22:19:20.256Z,78.94
2023-01-17T22:22:07.388Z,79.04
2023-01-17T22:24:53.119Z,80.19
2023-01-17T22:27:37.442Z,80.60
2023-01-17T22:33:07.472Z,80.67
2023-01-17T22:35:48.302Z,81.38
2023-01-17T22:38:39.872Z,81.04
2023-01-17T22:41:33.053Z,80.91
2023-01-17T22:44:02.376Z,80.56
2023-01-17T22:49:46.203Z,80.97
2023-01-17T22:52:19.530Z,81.86
2023-01-17T22:55:04.166Z,81.67
2023-01-17T22:57:58.622Z,81.19
2023-01-17T23:00:40.507Z,81.56
2023-01-17T23:03:39.888Z,79.94
2023-01-17T23:06:47.902Z,81.18
2023-01-17T23:09:44.354Z,80.39
2023-01-17T23:12:29.530Z,80.70
2023-01-17T23:15:14.825Z,81.33
2023-01-17T23:18:03.219Z,80.59
2023-01-17T23:20:36.803Z,80.30
2023-01-17T23:23:17.993Z,80.59
2023-01-17T23:25:49.717Z,80.95
2023-01-17T23:28:21.030Z,81.56
2023-01-17T23:30:52.241Z,81.60
2023-01-17T23:33:29.608Z,81.29
2023-01-17T23:36:09.477Z,81.49
2023-01-17T23:38:45.265Z,82.54
2023-01-17T23:41:35.647Z,83.40
2023-01-17T23:44:21.752Z,82.83
2023-01-17T23:46:58.333Z,82.88
2023-01-17T23:49:25.757Z,82.39
2023-01-17T23:51:53.117Z,82.06
2023-01-17T23:54:35.639Z,80.78
2023-01-17T23:57:25.816Z,80.60
2023-01-17T23:59:56.036Z,79.52
